sensor_id;sensor_type;location;lat;lon;timestamp;pressure;altitude;pressure_sealevel;temperature;humidity
17785;BME280;9016;53.582;10.062;2023-08-07T00:00:05;100392.25;;;18.43;78.75
17785;BME280;9016;53.582;10.062;2023-08-07T00:02:36;100389.84;;;18.40;78.71
17785;BME280;9016;53.582;10.062;2023-08-07T00:05:04;100385.47;;;18.39;77.74
17785;BME280;9016;53.582;10.062;2023-08-07T00:07:34;100395.97;;;18.42;77.47
17785;BME280;9016;53.582;10.062;2023-08-07T00:10:02;100390.97;;;18.47;77.19
17785;BME280;9016;53.582;10.062;2023-08-07T00:12:30;100392.16;;;18.44;76.20
17785;BME280;9016;53.582;10.062;2023-08-07T00:14:58;100385.03;;;18.43;76.16
17785;BME280;9016;53.582;10.062;2023-08-07T00:17:27;100383.88;;;18.46;76.30
17785;BME280;9016;53.582;10.062;2023-08-07T00:19:55;100380.34;;;18.45;76.21
17785;BME280;9016;53.582;10.062;2023-08-07T00:22:23;100380.91;;;18.39;75.59
17785;BME280;9016;53.582;10.062;2023-08-07T00:24:53;100382.19;;;18.35;75.84
17785;BME280;9016;53.582;10.062;2023-08-07T00:27:21;100377.66;;;18.36;74.84
17785;BME280;9016;53.582;10.062;2023-08-07T00:29:49;100385.75;;;18.36;75.12
17785;BME280;9016;53.582;10.062;2023-08-07T00:32:17;100383.53;;;18.31;75.10
17785;BME280;9016;53.582;10.062;2023-08-07T00:34:45;100382.81;;;18.29;74.88
17785;BME280;9016;53.582;10.062;2023-08-07T00:37:13;100374.47;;;18.23;75.17
17785;BME280;9016;53.582;10.062;2023-08-07T00:39:41;100377.47;;;18.20;75.03
17785;BME280;9016;53.582;10.062;2023-08-07T00:42:10;100376.22;;;18.14;74.20
17785;BME280;9016;53.582;10.062;2023-08-07T00:44:38;100376.59;;;18.19;74.13
17785;BME280;9016;53.582;10.062;2023-08-07T00:47:06;100373.31;;;18.25;74.11
17785;BME280;9016;53.582;10.062;2023-08-07T00:49:35;100377.63;;;18.18;74.21
17785;BME280;9016;53.582;10.062;2023-08-07T00:52:04;100374.78;;;18.20;74.37
17785;BME280;9016;53.582;10.062;2023-08-07T00:54:32;100382.00;;;18.19;74.49
17785;BME280;9016;53.582;10.062;2023-08-07T00:57:11;100388.69;;;18.15;73.87
17785;BME280;9016;53.582;10.062;2023-08-07T00:59:42;100386.53;;;18.19;74.40
17785;BME280;9016;53.582;10.062;2023-08-07T01:02:10;100374.94;;;18.18;74.42
17785;BME280;9016;53.582;10.062;2023-08-07T01:04:40;100375.63;;;18.20;74.49
17785;BME280;9016;53.582;10.062;2023-08-07T01:07:08;100382.72;;;18.21;74.23
17785;BME280;9016;53.582;10.062;2023-08-07T01:09:36;100376.59;;;18.19;74.30
17785;BME280;9016;53.582;10.062;2023-08-07T01:12:13;100377.06;;;18.15;74.06
17785;BME280;9016;53.582;10.062;2023-08-07T01:14:49;100371.25;;;18.10;74.20
17785;BME280;9016;53.582;10.062;2023-08-07T01:17:20;100367.72;;;18.09;73.83
17785;BME280;9016;53.582;10.062;2023-08-07T01:19:50;100366.88;;;18.09;73.77
17785;BME280;9016;53.582;10.062;2023-08-07T01:22:20;100365.63;;;18.03;73.62
17785;BME280;9016;53.582;10.062;2023-08-07T01:24:49;100366.78;;;17.91;74.44
17785;BME280;9016;53.582;10.062;2023-08-07T01:27:36;100366.38;;;17.96;74.49
17785;BME280;9016;53.582;10.062;2023-08-07T01:30:11;100360.97;;;17.96;74.98
17785;BME280;9016;53.582;10.062;2023-08-07T01:32:49;100371.06;;;17.94;75.24
17785;BME280;9016;53.582;10.062;2023-08-07T01:35:23;100350.50;;;17.93;75.94
17785;BME280;9016;53.582;10.062;2023-08-07T01:37:55;100361.41;;;17.91;76.66
17785;BME280;9016;53.582;10.062;2023-08-07T01:40:24;100361.88;;;17.87;77.21
17785;BME280;9016;53.582;10.062;2023-08-07T01:42:52;100347.69;;;17.85;76.99
17785;BME280;9016;53.582;10.062;2023-08-07T01:45:24;100358.47;;;17.85;77.77
17785;BME280;9016;53.582;10.062;2023-08-07T01:47:52;100352.06;;;17.86;77.59
17785;BME280;9016;53.582;10.062;2023-08-07T01:50:21;100359.91;;;17.79;77.66
17785;BME280;9016;53.582;10.062;2023-08-07T01:52:50;100349.97;;;17.79;77.85
17785;BME280;9016;53.582;10.062;2023-08-07T01:55:20;100361.31;;;17.83;78.37
17785;BME280;9016;53.582;10.062;2023-08-07T01:57:49;100356.81;;;17.74;78.61
17785;BME280;9016;53.582;10.062;2023-08-07T02:00:17;100351.13;;;17.77;78.98
17785;BME280;9016;53.582;10.062;2023-08-07T02:02:45;100358.78;;;17.82;78.91
17785;BME280;9016;53.582;10.062;2023-08-07T02:05:14;100348.41;;;17.77;79.12
17785;BME280;9016;53.582;10.062;2023-08-07T02:07:42;100354.66;;;17.77;79.56
17785;BME280;9016;53.582;10.062;2023-08-07T02:10:10;100351.25;;;17.75;79.67
17785;BME280;9016;53.582;10.062;2023-08-07T02:12:40;100352.25;;;17.74;80.06
17785;BME280;9016;53.582;10.062;2023-08-07T02:15:08;100356.81;;;17.74;79.87
17785;BME280;9016;53.582;10.062;2023-08-07T02:17:36;100351.41;;;17.74;79.76
17785;BME280;9016;53.582;10.062;2023-08-07T02:20:06;100349.69;;;17.73;79.84
17785;BME280;9016;53.582;10.062;2023-08-07T02:22:34;100345.16;;;17.73;80.06
17785;BME280;9016;53.582;10.062;2023-08-07T02:25:02;100343.59;;;17.71;79.67
17785;BME280;9016;53.582;10.062;2023-08-07T02:27:30;100339.06;;;17.71;79.97
17785;BME280;9016;53.582;10.062;2023-08-07T02:30:00;100341.94;;;17.70;80.32
17785;BME280;9016;53.582;10.062;2023-08-07T02:32:29;100343.50;;;17.72;80.24
17785;BME280;9016;53.582;10.062;2023-08-07T02:34:57;100344.63;;;17.70;80.47
17785;BME280;9016;53.582;10.062;2023-08-07T02:37:25;100329.34;;;17.61;81.05
17785;BME280;9016;53.582;10.062;2023-08-07T02:39:53;100335.81;;;17.68;80.77
17785;BME280;9016;53.582;10.062;2023-08-07T02:42:21;100338.38;;;17.69;80.37
17785;BME280;9016;53.582;10.062;2023-08-07T02:44:49;100340.34;;;17.67;80.46
17785;BME280;9016;53.582;10.062;2023-08-07T02:47:18;100344.06;;;17.66;79.97
17785;BME280;9016;53.582;10.062;2023-08-07T02:49:46;100342.91;;;17.69;80.03
17785;BME280;9016;53.582;10.062;2023-08-07T02:52:14;100348.44;;;17.67;79.36
17785;BME280;9016;53.582;10.062;2023-08-07T02:54:42;100351.84;;;17.69;79.86
17785;BME280;9016;53.582;10.062;2023-08-07T02:57:10;100348.16;;;17.70;79.25
17785;BME280;9016;53.582;10.062;2023-08-07T02:59:38;100354.94;;;17.74;79.34
17785;BME280;9016;53.582;10.062;2023-08-07T03:02:06;100353.84;;;17.67;78.78
17785;BME280;9016;53.582;10.062;2023-08-07T03:04:35;100350.72;;;17.72;79.05
17785;BME280;9016;53.582;10.062;2023-08-07T03:07:03;100349.31;;;17.68;79.28
17785;BME280;9016;53.582;10.062;2023-08-07T03:09:31;100360.47;;;17.73;79.33
17785;BME280;9016;53.582;10.062;2023-08-07T03:11:59;100352.31;;;17.65;79.07
17785;BME280;9016;53.582;10.062;2023-08-07T03:14:31;100347.16;;;17.71;79.02
17785;BME280;9016;53.582;10.062;2023-08-07T03:16:59;100352.41;;;17.73;79.38
17785;BME280;9016;53.582;10.062;2023-08-07T03:19:27;100347.63;;;17.67;79.63
17785;BME280;9016;53.582;10.062;2023-08-07T03:21:56;100341.47;;;17.74;79.74
17785;BME280;9016;53.582;10.062;2023-08-07T03:24:24;100349.13;;;17.79;79.61
17785;BME280;9016;53.582;10.062;2023-08-07T03:26:52;100348.09;;;17.80;79.68
17785;BME280;9016;53.582;10.062;2023-08-07T03:29:20;100344.69;;;17.88;79.66
17785;BME280;9016;53.582;10.062;2023-08-07T03:31:48;100342.09;;;17.96;79.43
17785;BME280;9016;53.582;10.062;2023-08-07T03:34:16;100344.22;;;18.02;79.30
17785;BME280;9016;53.582;10.062;2023-08-07T03:36:44;100344.28;;;18.10;79.03
17785;BME280;9016;53.582;10.062;2023-08-07T03:39:13;100343.00;;;18.14;78.86
17785;BME280;9016;53.582;10.062;2023-08-07T03:41:41;100348.97;;;18.08;79.67
17785;BME280;9016;53.582;10.062;2023-08-07T03:44:09;100350.69;;;18.09;79.52
17785;BME280;9016;53.582;10.062;2023-08-07T03:46:37;100346.56;;;18.14;79.64
17785;BME280;9016;53.582;10.062;2023-08-07T03:49:05;100348.53;;;18.12;79.68
17785;BME280;9016;53.582;10.062;2023-08-07T03:51:33;100346.28;;;18.08;79.86
17785;BME280;9016;53.582;10.062;2023-08-07T03:54:01;100342.75;;;18.07;80.75
17785;BME280;9016;53.582;10.062;2023-08-07T03:56:31;100339.22;;;18.07;80.23
17785;BME280;9016;53.582;10.062;2023-08-07T03:59:03;100340.22;;;18.06;80.87
17785;BME280;9016;53.582;10.062;2023-08-07T04:01:31;100339.22;;;18.07;81.46
17785;BME280;9016;53.582;10.062;2023-08-07T04:03:59;100350.84;;;18.07;81.17
17785;BME280;9016;53.582;10.062;2023-08-07T04:06:27;100343.66;;;17.98;82.19
17785;BME280;9016;53.582;10.062;2023-08-07T04:08:55;100341.50;;;18.02;82.20
17785;BME280;9016;53.582;10.062;2023-08-07T04:11:23;100337.66;;;18.04;82.14
17785;BME280;9016;53.582;10.062;2023-08-07T04:13:52;100336.94;;;18.02;82.40
17785;BME280;9016;53.582;10.062;2023-08-07T04:16:20;100334.25;;;18.02;83.22
17785;BME280;9016;53.582;10.062;2023-08-07T04:18:49;100331.47;;;17.94;83.67
17785;BME280;9016;53.582;10.062;2023-08-07T04:21:18;100332.03;;;17.98;83.26
17785;BME280;9016;53.582;10.062;2023-08-07T04:23:46;100334.88;;;17.96;83.74
17785;BME280;9016;53.582;10.062;2023-08-07T04:26:14;100333.56;;;18.00;83.46
17785;BME280;9016;53.582;10.062;2023-08-07T04:28:42;100337.09;;;18.01;83.07
17785;BME280;9016;53.582;10.062;2023-08-07T04:31:12;100338.84;;;17.92;83.61
17785;BME280;9016;53.582;10.062;2023-08-07T04:33:40;100337.41;;;17.98;84.12
17785;BME280;9016;53.582;10.062;2023-08-07T04:36:08;100338.53;;;17.95;83.88
17785;BME280;9016;53.582;10.062;2023-08-07T04:38:36;100343.19;;;18.03;83.78
17785;BME280;9016;53.582;10.062;2023-08-07T04:41:04;100341.66;;;18.00;83.57
17785;BME280;9016;53.582;10.062;2023-08-07T04:43:32;100345.31;;;18.09;83.89
17785;BME280;9016;53.582;10.062;2023-08-07T04:46:00;100345.84;;;18.12;83.65
17785;BME280;9016;53.582;10.062;2023-08-07T04:48:29;100343.84;;;18.14;83.43
17785;BME280;9016;53.582;10.062;2023-08-07T04:50:57;100341.84;;;18.16;83.60
17785;BME280;9016;53.582;10.062;2023-08-07T04:53:25;100351.47;;;18.19;83.88
17785;BME280;9016;53.582;10.062;2023-08-07T04:55:53;100349.25;;;18.14;83.89
17785;BME280;9016;53.582;10.062;2023-08-07T04:58:21;100346.66;;;18.22;83.75
17785;BME280;9016;53.582;10.062;2023-08-07T05:00:54;100349.44;;;18.30;83.72
17785;BME280;9016;53.582;10.062;2023-08-07T05:03:22;100356.78;;;18.38;83.38
17785;BME280;9016;53.582;10.062;2023-08-07T05:05:58;100351.22;;;18.39;83.37
17785;BME280;9016;53.582;10.062;2023-08-07T05:08:26;100353.91;;;18.49;82.79
17785;BME280;9016;53.582;10.062;2023-08-07T05:10:54;100347.59;;;18.58;82.62
17785;BME280;9016;53.582;10.062;2023-08-07T05:13:22;100349.59;;;18.56;82.39
17785;BME280;9016;53.582;10.062;2023-08-07T05:15:50;100354.22;;;18.63;82.23
17785;BME280;9016;53.582;10.062;2023-08-07T05:18:18;100350.38;;;18.66;82.46
17785;BME280;9016;53.582;10.062;2023-08-07T05:20:46;100353.44;;;18.71;81.67
17785;BME280;9016;53.582;10.062;2023-08-07T05:23:15;100348.06;;;18.71;81.71
17785;BME280;9016;53.582;10.062;2023-08-07T05:25:45;100347.19;;;18.70;81.66
17785;BME280;9016;53.582;10.062;2023-08-07T05:28:15;100343.19;;;18.74;81.85
17785;BME280;9016;53.582;10.062;2023-08-07T05:30:43;100341.13;;;18.86;81.15
17785;BME280;9016;53.582;10.062;2023-08-07T05:33:11;100347.13;;;18.80;81.06
17785;BME280;9016;53.582;10.062;2023-08-07T05:35:41;100343.44;;;18.81;81.49
17785;BME280;9016;53.582;10.062;2023-08-07T05:38:09;100355.47;;;18.87;80.97
17785;BME280;9016;53.582;10.062;2023-08-07T05:40:38;100359.63;;;18.99;80.46
17785;BME280;9016;53.582;10.062;2023-08-07T05:43:07;100350.66;;;18.98;80.41
17785;BME280;9016;53.582;10.062;2023-08-07T05:45:35;100351.44;;;19.08;80.02
17785;BME280;9016;53.582;10.062;2023-08-07T05:48:04;100357.16;;;19.05;79.99
17785;BME280;9016;53.582;10.062;2023-08-07T05:50:32;100357.38;;;19.12;80.05
17785;BME280;9016;53.582;10.062;2023-08-07T05:53:00;100352.75;;;19.04;79.04
17785;BME280;9016;53.582;10.062;2023-08-07T05:55:28;100358.53;;;19.09;79.76
17785;BME280;9016;53.582;10.062;2023-08-07T05:57:57;100357.31;;;19.21;78.02
17785;BME280;9016;53.582;10.062;2023-08-07T06:00:25;100361.81;;;19.13;78.25
17785;BME280;9016;53.582;10.062;2023-08-07T06:02:55;100360.31;;;19.18;77.37
17785;BME280;9016;53.582;10.062;2023-08-07T06:05:23;100356.69;;;19.10;76.68
17785;BME280;9016;53.582;10.062;2023-08-07T06:07:52;100360.69;;;19.06;76.46
17785;BME280;9016;53.582;10.062;2023-08-07T06:10:19;100356.00;;;19.25;75.74
17785;BME280;9016;53.582;10.062;2023-08-07T06:12:47;100359.31;;;19.19;75.06
17785;BME280;9016;53.582;10.062;2023-08-07T06:15:17;100363.22;;;19.25;75.71
17785;BME280;9016;53.582;10.062;2023-08-07T06:17:45;100356.44;;;19.21;74.90
17785;BME280;9016;53.582;10.062;2023-08-07T06:20:13;100356.41;;;19.13;75.22
17785;BME280;9016;53.582;10.062;2023-08-07T06:22:42;100376.31;;;18.94;75.40
17785;BME280;9016;53.582;10.062;2023-08-07T06:25:10;100373.38;;;19.05;76.15
17785;BME280;9016;53.582;10.062;2023-08-07T06:27:38;100382.00;;;18.91;75.73
17785;BME280;9016;53.582;10.062;2023-08-07T06:30:07;100364.72;;;18.84;75.51
17785;BME280;9016;53.582;10.062;2023-08-07T06:32:36;100363.56;;;19.04;75.49
17785;BME280;9016;53.582;10.062;2023-08-07T06:35:05;100365.31;;;19.13;75.06
17785;BME280;9016;53.582;10.062;2023-08-07T06:37:33;100365.78;;;19.26;73.10
17785;BME280;9016;53.582;10.062;2023-08-07T06:40:01;100367.72;;;19.34;72.76
17785;BME280;9016;53.582;10.062;2023-08-07T06:42:30;100364.84;;;19.53;72.71
17785;BME280;9016;53.582;10.062;2023-08-07T06:44:58;100364.31;;;19.49;72.06
17785;BME280;9016;53.582;10.062;2023-08-07T06:47:25;100366.41;;;19.38;71.09
17785;BME280;9016;53.582;10.062;2023-08-07T06:49:55;100357.44;;;19.37;71.79
17785;BME280;9016;53.582;10.062;2023-08-07T06:52:23;100374.16;;;19.33;72.22
17785;BME280;9016;53.582;10.062;2023-08-07T06:54:51;100375.44;;;19.29;71.79
17785;BME280;9016;53.582;10.062;2023-08-07T06:57:19;100379.69;;;19.31;71.42
17785;BME280;9016;53.582;10.062;2023-08-07T06:59:46;100378.69;;;19.32;71.30
17785;BME280;9016;53.582;10.062;2023-08-07T07:02:14;100380.13;;;19.27;71.96
17785;BME280;9016;53.582;10.062;2023-08-07T07:04:42;100382.22;;;19.76;71.03
17785;BME280;9016;53.582;10.062;2023-08-07T07:07:11;100381.28;;;20.19;68.44
17785;BME280;9016;53.582;10.062;2023-08-07T07:09:39;100383.31;;;19.91;67.50
17785;BME280;9016;53.582;10.062;2023-08-07T07:12:08;100386.56;;;19.69;67.05
17785;BME280;9016;53.582;10.062;2023-08-07T07:14:36;100391.59;;;19.64;67.85
17785;BME280;9016;53.582;10.062;2023-08-07T07:17:04;100387.34;;;19.61;67.51
17785;BME280;9016;53.582;10.062;2023-08-07T07:19:32;100385.53;;;19.70;66.00
17785;BME280;9016;53.582;10.062;2023-08-07T07:22:00;100379.50;;;20.35;63.58
17785;BME280;9016;53.582;10.062;2023-08-07T07:24:29;100380.69;;;20.99;61.25
17785;BME280;9016;53.582;10.062;2023-08-07T07:26:57;100383.72;;;20.96;60.55
17785;BME280;9016;53.582;10.062;2023-08-07T07:29:25;100389.09;;;20.71;59.98
17785;BME280;9016;53.582;10.062;2023-08-07T07:31:53;100385.59;;;20.37;60.91
17785;BME280;9016;53.582;10.062;2023-08-07T07:34:22;100397.78;;;20.08;60.72
17785;BME280;9016;53.582;10.062;2023-08-07T07:36:50;100414.19;;;19.81;62.18
17785;BME280;9016;53.582;10.062;2023-08-07T07:39:20;100424.13;;;19.19;64.99
17785;BME280;9016;53.582;10.062;2023-08-07T07:41:49;100413.88;;;18.88;66.93
17785;BME280;9016;53.582;10.062;2023-08-07T07:44:18;100409.78;;;19.01;67.28
17785;BME280;9016;53.582;10.062;2023-08-07T07:46:46;100411.19;;;19.40;66.32
17785;BME280;9016;53.582;10.062;2023-08-07T07:49:14;100412.06;;;20.18;64.65
17785;BME280;9016;53.582;10.062;2023-08-07T07:51:42;100402.25;;;21.48;59.47
17785;BME280;9016;53.582;10.062;2023-08-07T07:54:11;100400.63;;;22.18;55.99
17785;BME280;9016;53.582;10.062;2023-08-07T07:56:41;100405.25;;;23.10;53.90
17785;BME280;9016;53.582;10.062;2023-08-07T07:59:12;100395.28;;;23.85;51.98
17785;BME280;9016;53.582;10.062;2023-08-07T08:01:40;100408.25;;;23.97;51.37
17785;BME280;9016;53.582;10.062;2023-08-07T08:04:08;100404.47;;;23.84;50.71
17785;BME280;9016;53.582;10.062;2023-08-07T08:06:37;100401.44;;;23.64;51.45
17785;BME280;9016;53.582;10.062;2023-08-07T08:09:05;100407.53;;;23.21;52.34
17785;BME280;9016;53.582;10.062;2023-08-07T08:11:36;100403.56;;;22.78;52.32
17785;BME280;9016;53.582;10.062;2023-08-07T08:14:05;100411.28;;;22.20;54.27
17785;BME280;9016;53.582;10.062;2023-08-07T08:16:34;100425.28;;;21.68;55.73
17785;BME280;9016;53.582;10.062;2023-08-07T08:19:02;100449.81;;;21.27;56.72
17785;BME280;9016;53.582;10.062;2023-08-07T08:21:30;100457.59;;;20.56;59.90
17785;BME280;9016;53.582;10.062;2023-08-07T08:23:59;100435.31;;;20.11;61.57
17785;BME280;9016;53.582;10.062;2023-08-07T08:26:27;100447.44;;;19.73;62.35
17785;BME280;9016;53.582;10.062;2023-08-07T08:28:55;100450.06;;;19.65;63.51
17785;BME280;9016;53.582;10.062;2023-08-07T08:31:23;100445.00;;;19.88;62.40
17785;BME280;9016;53.582;10.062;2023-08-07T08:33:52;100452.31;;;19.69;62.86
17785;BME280;9016;53.582;10.062;2023-08-07T08:36:20;100467.84;;;19.67;63.88
17785;BME280;9016;53.582;10.062;2023-08-07T08:38:48;100465.66;;;19.71;64.97
17785;BME280;9016;53.582;10.062;2023-08-07T08:41:19;100463.06;;;19.87;65.79
17785;BME280;9016;53.582;10.062;2023-08-07T08:43:49;100460.09;;;19.98;65.83
17785;BME280;9016;53.582;10.062;2023-08-07T08:46:20;100459.38;;;19.88;66.06
17785;BME280;9016;53.582;10.062;2023-08-07T08:48:52;100463.75;;;19.89;65.74
17785;BME280;9016;53.582;10.062;2023-08-07T08:51:24;100464.34;;;19.75;66.34
17785;BME280;9016;53.582;10.062;2023-08-07T08:53:52;100476.22;;;19.64;67.34
17785;BME280;9016;53.582;10.062;2023-08-07T08:56:23;100478.53;;;19.51;68.45
17785;BME280;9016;53.582;10.062;2023-08-07T08:58:51;100492.88;;;19.34;70.00
17785;BME280;9016;53.582;10.062;2023-08-07T09:01:20;100483.34;;;19.13;68.89
17785;BME280;9016;53.582;10.062;2023-08-07T09:03:55;100490.88;;;19.36;69.34
17785;BME280;9016;53.582;10.062;2023-08-07T09:06:24;100488.91;;;19.46;67.86
17785;BME280;9016;53.582;10.062;2023-08-07T09:08:53;100481.66;;;19.47;66.08
17785;BME280;9016;53.582;10.062;2023-08-07T09:11:22;100492.72;;;19.36;65.43
17785;BME280;9016;53.582;10.062;2023-08-07T09:13:52;100488.53;;;19.41;63.88
17785;BME280;9016;53.582;10.062;2023-08-07T09:16:24;100486.66;;;19.59;63.36
17785;BME280;9016;53.582;10.062;2023-08-07T09:18:55;100483.31;;;20.26;61.84
17785;BME280;9016;53.582;10.062;2023-08-07T09:21:23;100467.81;;;21.36;58.64
17785;BME280;9016;53.582;10.062;2023-08-07T09:23:51;100455.41;;;22.22;52.97
17785;BME280;9016;53.582;10.062;2023-08-07T09:26:22;100462.75;;;23.29;49.24
17785;BME280;9016;53.582;10.062;2023-08-07T09:28:51;100455.66;;;23.66;47.68
17785;BME280;9016;53.582;10.062;2023-08-07T09:31:20;100455.84;;;23.64;47.42
17785;BME280;9016;53.582;10.062;2023-08-07T09:33:48;100464.25;;;24.14;44.73
17785;BME280;9016;53.582;10.062;2023-08-07T09:36:18;100468.13;;;23.37;46.03
17785;BME280;9016;53.582;10.062;2023-08-07T09:38:49;100483.53;;;22.37;46.78
17785;BME280;9016;53.582;10.062;2023-08-07T09:41:18;100479.69;;;22.07;48.52
17785;BME280;9016;53.582;10.062;2023-08-07T09:43:47;100461.38;;;21.61;48.22
17785;BME280;9016;53.582;10.062;2023-08-07T09:46:17;100480.31;;;21.29;47.89
17785;BME280;9016;53.582;10.062;2023-08-07T09:48:45;100489.34;;;22.10;46.81
17785;BME280;9016;53.582;10.062;2023-08-07T09:51:13;100487.66;;;22.09;45.11
17785;BME280;9016;53.582;10.062;2023-08-07T09:53:44;100484.44;;;22.13;45.15
17785;BME280;9016;53.582;10.062;2023-08-07T09:56:12;100470.66;;;22.23;44.97
17785;BME280;9016;53.582;10.062;2023-08-07T09:58:46;100473.22;;;22.24;44.18
17785;BME280;9016;53.582;10.062;2023-08-07T10:01:16;100469.94;;;22.37;43.13
17785;BME280;9016;53.582;10.062;2023-08-07T10:03:44;100471.97;;;22.90;43.76
17785;BME280;9016;53.582;10.062;2023-08-07T10:06:13;100479.13;;;23.13;41.99
17785;BME280;9016;53.582;10.062;2023-08-07T10:08:44;100495.91;;;22.55;42.87
17785;BME280;9016;53.582;10.062;2023-08-07T10:11:13;100487.09;;;22.29;43.33
17785;BME280;9016;53.582;10.062;2023-08-07T10:13:45;100471.94;;;22.51;43.69
17785;BME280;9016;53.582;10.062;2023-08-07T10:16:14;100492.69;;;22.91;43.63
17785;BME280;9016;53.582;10.062;2023-08-07T10:18:42;100487.91;;;23.31;42.61
17785;BME280;9016;53.582;10.062;2023-08-07T10:21:11;100486.91;;;22.86;42.60
17785;BME280;9016;53.582;10.062;2023-08-07T10:23:39;100491.13;;;22.96;42.65
17785;BME280;9016;53.582;10.062;2023-08-07T10:26:09;100493.81;;;22.66;41.31
17785;BME280;9016;53.582;10.062;2023-08-07T10:28:40;100488.06;;;22.60;42.02
17785;BME280;9016;53.582;10.062;2023-08-07T10:31:11;100495.25;;;22.37;42.43
17785;BME280;9016;53.582;10.062;2023-08-07T10:33:41;100502.59;;;22.13;43.21
17785;BME280;9016;53.582;10.062;2023-08-07T10:36:10;100493.03;;;22.33;43.41
17785;BME280;9016;53.582;10.062;2023-08-07T10:38:39;100498.34;;;22.10;44.04
17785;BME280;9016;53.582;10.062;2023-08-07T10:41:09;100500.88;;;21.88;45.20
17785;BME280;9016;53.582;10.062;2023-08-07T10:43:38;100489.69;;;21.99;45.47
17785;BME280;9016;53.582;10.062;2023-08-07T10:46:10;100493.22;;;22.23;45.75
17785;BME280;9016;53.582;10.062;2023-08-07T10:48:39;100497.97;;;22.37;45.10
17785;BME280;9016;53.582;10.062;2023-08-07T10:51:08;100501.03;;;22.18;44.66
17785;BME280;9016;53.582;10.062;2023-08-07T10:53:40;100494.25;;;22.14;44.27
17785;BME280;9016;53.582;10.062;2023-08-07T10:56:11;100501.53;;;22.30;43.79
17785;BME280;9016;53.582;10.062;2023-08-07T10:58:40;100490.69;;;22.22;43.09
17785;BME280;9016;53.582;10.062;2023-08-07T11:01:26;100502.25;;;22.00;44.26
17785;BME280;9016;53.582;10.062;2023-08-07T11:03:57;100517.16;;;21.88;45.54
17785;BME280;9016;53.582;10.062;2023-08-07T11:06:28;100516.31;;;21.95;45.81
17785;BME280;9016;53.582;10.062;2023-08-07T11:08:58;100504.59;;;21.79;45.10
17785;BME280;9016;53.582;10.062;2023-08-07T11:11:28;100488.88;;;21.90;44.43
17785;BME280;9016;53.582;10.062;2023-08-07T11:13:56;100496.28;;;21.64;44.67
17785;BME280;9016;53.582;10.062;2023-08-07T11:16:24;100502.91;;;21.61;45.12
17785;BME280;9016;53.582;10.062;2023-08-07T11:18:53;100498.84;;;21.90;44.74
17785;BME280;9016;53.582;10.062;2023-08-07T11:21:22;100516.44;;;21.45;46.08
17785;BME280;9016;53.582;10.062;2023-08-07T11:23:54;100520.25;;;21.11;48.45
17785;BME280;9016;53.582;10.062;2023-08-07T11:26:22;100537.72;;;21.08;49.77
17785;BME280;9016;53.582;10.062;2023-08-07T11:28:55;100535.75;;;20.93;50.05
17785;BME280;9016;53.582;10.062;2023-08-07T11:31:24;100530.78;;;21.22;49.78
17785;BME280;9016;53.582;10.062;2023-08-07T11:33:54;100518.28;;;21.21;49.27
17785;BME280;9016;53.582;10.062;2023-08-07T11:36:22;100533.72;;;21.28;49.84
17785;BME280;9016;53.582;10.062;2023-08-07T11:38:50;100528.31;;;21.44;49.62
17785;BME280;9016;53.582;10.062;2023-08-07T11:41:18;100519.34;;;21.68;49.47
17785;BME280;9016;53.582;10.062;2023-08-07T11:43:47;100539.66;;;21.48;50.13
17785;BME280;9016;53.582;10.062;2023-08-07T11:46:16;100527.09;;;21.31;50.76
17785;BME280;9016;53.582;10.062;2023-08-07T11:48:45;100528.09;;;21.22;50.17
17785;BME280;9016;53.582;10.062;2023-08-07T11:51:13;100537.16;;;21.05;49.93
17785;BME280;9016;53.582;10.062;2023-08-07T11:53:44;100554.06;;;20.65;49.06
17785;BME280;9016;53.582;10.062;2023-08-07T11:56:13;100553.03;;;20.92;48.10
17785;BME280;9016;53.582;10.062;2023-08-07T11:58:42;100539.75;;;21.06;46.40
17785;BME280;9016;53.582;10.062;2023-08-07T12:01:14;100539.28;;;21.27;45.15
17785;BME280;9016;53.582;10.062;2023-08-07T12:03:52;100553.34;;;21.22;44.65
17785;BME280;9016;53.582;10.062;2023-08-07T12:06:22;100537.69;;;21.00;45.64
17785;BME280;9016;53.582;10.062;2023-08-07T12:08:54;100567.34;;;21.10;46.81
17785;BME280;9016;53.582;10.062;2023-08-07T12:11:23;100567.72;;;20.55;48.29
17785;BME280;9016;53.582;10.062;2023-08-07T12:13:51;100578.34;;;20.23;52.77
17785;BME280;9016;53.582;10.062;2023-08-07T12:16:19;100609.72;;;19.81;55.93
17785;BME280;9016;53.582;10.062;2023-08-07T12:18:48;100587.69;;;19.76;55.89
17785;BME280;9016;53.582;10.062;2023-08-07T12:21:19;100594.50;;;19.80;56.47
17785;BME280;9016;53.582;10.062;2023-08-07T12:23:50;100587.78;;;19.84;55.40
17785;BME280;9016;53.582;10.062;2023-08-07T12:26:18;100595.13;;;20.27;55.26
17785;BME280;9016;53.582;10.062;2023-08-07T12:28:46;100576.97;;;20.45;53.76
17785;BME280;9016;53.582;10.062;2023-08-07T12:31:14;100590.00;;;20.49;52.33
17785;BME280;9016;53.582;10.062;2023-08-07T12:33:44;100574.06;;;20.64;52.06
17785;BME280;9016;53.582;10.062;2023-08-07T12:36:12;100592.31;;;20.62;52.71
17785;BME280;9016;53.582;10.062;2023-08-07T12:38:45;100586.22;;;20.60;52.05
17785;BME280;9016;53.582;10.062;2023-08-07T12:41:13;100591.53;;;20.69;51.97
17785;BME280;9016;53.582;10.062;2023-08-07T12:43:44;100605.09;;;19.91;57.59
17785;BME280;9016;53.582;10.062;2023-08-07T12:46:13;100607.41;;;19.68;59.61
17785;BME280;9016;53.582;10.062;2023-08-07T12:48:44;100598.81;;;19.55;60.80
17785;BME280;9016;53.582;10.062;2023-08-07T12:51:12;100599.44;;;19.67;60.94
17785;BME280;9016;53.582;10.062;2023-08-07T12:53:39;100596.75;;;19.85;60.09
17785;BME280;9016;53.582;10.062;2023-08-07T12:56:09;100594.72;;;19.87;59.14
17785;BME280;9016;53.582;10.062;2023-08-07T12:58:37;100601.97;;;20.04;58.12